createdAt,value
2018-07-16T00:01:32.600Z,3.30
2018-07-16T00:04:03.131Z,2.70
2018-07-16T00:06:33.805Z,2.73
2018-07-16T00:09:04.751Z,2.30
2018-07-16T00:11:35.013Z,2.90
2018-07-16T00:14:05.454Z,2.40
2018-07-16T00:16:35.928Z,2.87
2018-07-16T00:19:06.689Z,2.67
2018-07-16T00:21:37.320Z,3.70
2018-07-16T00:24:07.858Z,2.40
2018-07-16T00:26:38.377Z,2.47
2018-07-16T00:29:09.476Z,2.60
2018-07-16T00:31:40.498Z,3.20
2018-07-16T00:34:10.963Z,3.03
2018-07-16T00:36:41.414Z,2.77
2018-07-16T00:39:12.148Z,3.17
2018-07-16T00:41:43.473Z,2.80
2018-07-16T00:44:14.050Z,2.50
2018-07-16T00:46:44.554Z,3.10
2018-07-16T00:49:15.150Z,3.00
2018-07-16T00:51:45.873Z,2.90
2018-07-16T00:54:16.600Z,3.23
2018-07-16T00:56:47.085Z,3.27
2018-07-16T00:59:17.819Z,3.00
2018-07-16T01:01:48.422Z,3.00
2018-07-16T01:04:19.295Z,3.20
2018-07-16T01:06:50.048Z,3.00
2018-07-16T01:09:21.460Z,3.47
2018-07-16T01:11:51.965Z,2.80
2018-07-16T01:14:22.998Z,3.60
2018-07-16T01:16:53.617Z,3.20
2018-07-16T01:19:24.185Z,2.90
2018-07-16T01:21:54.855Z,3.37
2018-07-16T01:24:25.423Z,3.23
2018-07-16T01:26:55.679Z,3.33
2018-07-16T01:29:26.301Z,3.77
2018-07-16T01:31:56.934Z,3.37
2018-07-16T01:34:28.051Z,2.90
2018-07-16T01:36:58.535Z,3.30
2018-07-16T01:39:28.842Z,3.20
2018-07-16T01:41:59.545Z,4.10
2018-07-16T01:44:29.985Z,3.80
2018-07-16T01:47:01.253Z,2.97
2018-07-16T01:49:31.700Z,3.10
2018-07-16T01:52:02.412Z,3.80
2018-07-16T01:54:33.107Z,3.90
2018-07-16T01:57:03.843Z,3.37
2018-07-16T01:59:34.464Z,3.43
2018-07-16T02:02:05.264Z,3.17
2018-07-16T02:04:35.950Z,3.30
2018-07-16T02:07:06.904Z,3.40
2018-07-16T02:09:37.417Z,3.83
2018-07-16T02:12:08.532Z,3.80
2018-07-16T02:14:39.195Z,3.87
2018-07-16T02:17:09.659Z,3.03
2018-07-16T02:19:40.284Z,3.73
2018-07-16T02:22:10.905Z,3.53
2018-07-16T02:24:41.354Z,4.10
2018-07-16T02:27:12.161Z,4.00
2018-07-16T02:29:42.621Z,4.10
2018-07-16T02:32:13.381Z,3.93
2018-07-16T02:34:43.949Z,3.73
2018-07-16T02:37:14.200Z,4.63
2018-07-16T02:39:45.352Z,4.50
2018-07-16T02:42:15.975Z,5.00
2018-07-16T02:44:46.649Z,3.63
2018-07-16T02:47:17.327Z,3.43
2018-07-16T02:49:48.111Z,3.60
2018-07-16T02:52:18.745Z,4.13
2018-07-16T02:54:49.297Z,3.90
2018-07-16T02:57:20.433Z,4.23
2018-07-16T02:59:50.719Z,3.90
2018-07-16T03:02:21.165Z,3.90
2018-07-16T03:04:51.688Z,4.30
2018-07-16T03:07:22.780Z,4.90
2018-07-16T03:09:54.052Z,4.10
2018-07-16T03:12:24.659Z,4.10
2018-07-16T03:14:55.380Z,4.30
2018-07-16T03:17:26.123Z,4.07
2018-07-16T03:19:56.944Z,3.70
2018-07-16T03:22:27.501Z,4.27
2018-07-16T03:24:57.929Z,4.40
2018-07-16T03:27:29.264Z,5.07
2018-07-16T03:29:59.877Z,4.00
2018-07-16T03:32:30.324Z,4.27
2018-07-16T03:35:01.026Z,3.90
2018-07-16T03:37:31.331Z,3.77
2018-07-16T03:40:02.534Z,3.97
2018-07-16T03:42:33.852Z,4.30
2018-07-16T03:45:04.616Z,4.17
2018-07-16T03:47:35.004Z,4.27
2018-07-16T03:50:05.562Z,3.90
2018-07-16T03:52:36.579Z,4.50
2018-07-16T03:55:07.035Z,3.97
2018-07-16T03:57:37.480Z,4.30
2018-07-16T04:00:08.159Z,4.43
2018-07-16T04:02:38.853Z,4.13
2018-07-16T04:05:10.038Z,4.03
2018-07-16T04:07:40.717Z,3.90
2018-07-16T04:10:11.464Z,3.43
2018-07-16T04:12:42.079Z,3.83
2018-07-16T04:15:12.815Z,3.30
2018-07-16T04:17:43.415Z,4.20
2018-07-16T04:20:13.668Z,4.53
2018-07-16T04:22:44.273Z,4.10
2018-07-16T04:25:14.885Z,3.70
2018-07-16T04:27:45.664Z,4.23
2018-07-16T04:30:16.235Z,3.30
2018-07-16T04:32:47.110Z,3.30
2018-07-16T04:35:17.630Z,3.70
2018-07-16T04:37:48.410Z,3.70
2018-07-16T04:40:18.885Z,3.30
2018-07-16T04:42:49.573Z,3.70
2018-07-16T04:45:20.147Z,3.97
2018-07-16T04:47:51.047Z,3.70
2018-07-16T04:50:21.740Z,3.83
2018-07-16T04:52:52.196Z,3.70
2018-07-16T04:55:22.812Z,3.00
2018-07-16T04:57:53.837Z,3.17
2018-07-16T05:00:24.364Z,3.83
2018-07-16T05:02:55.195Z,4.47
2018-07-16T05:05:25.804Z,3.60
2018-07-16T05:07:56.251Z,3.40
2018-07-16T05:10:27.264Z,4.00
2018-07-16T05:12:57.752Z,4.03
2018-07-16T05:15:28.576Z,3.30
2018-07-16T05:18:00.406Z,2.90
2018-07-16T05:20:31.753Z,3.23
2018-07-16T05:23:02.552Z,2.90
2018-07-16T05:25:33.234Z,2.57
2018-07-16T05:28:03.894Z,3.50
2018-07-16T05:30:34.728Z,3.23
2018-07-16T05:33:04.952Z,2.93
2018-07-16T05:35:35.441Z,3.60
2018-07-16T05:38:06.028Z,3.20
2018-07-16T05:40:36.541Z,3.03
2018-07-16T05:43:08.006Z,2.97
2018-07-16T05:45:38.592Z,3.50
2018-07-16T05:48:09.122Z,3.10
2018-07-16T05:50:39.378Z,2.87
2018-07-16T05:53:12.830Z,5.10
2018-07-16T05:55:43.505Z,2.60
2018-07-16T05:58:14.352Z,3.03
2018-07-16T06:00:45.150Z,2.83
2018-07-16T06:03:15.689Z,2.93
2018-07-16T06:05:46.315Z,2.33
2018-07-16T06:08:16.998Z,2.30
2018-07-16T06:10:47.519Z,2.30
2018-07-16T06:13:18.196Z,2.30
2018-07-16T06:15:48.957Z,2.67
2018-07-16T06:18:19.570Z,3.00
2018-07-16T06:20:50.203Z,3.40
2018-07-16T06:23:20.835Z,2.93
2018-07-16T06:25:51.359Z,2.67
2018-07-16T06:28:21.931Z,2.43
2018-07-16T06:30:52.529Z,3.73
2018-07-16T06:33:22.991Z,2.90
2018-07-16T06:35:54.834Z,2.70
2018-07-16T06:38:25.295Z,2.70
2018-07-16T06:40:56.164Z,3.50
2018-07-16T06:43:26.634Z,3.00
2018-07-16T06:45:57.298Z,3.30
2018-07-16T06:48:27.879Z,3.90
2018-07-16T06:50:58.633Z,3.37
2018-07-16T06:53:29.186Z,3.83
2018-07-16T06:55:59.871Z,4.30
2018-07-16T06:58:30.497Z,3.93
2018-07-16T07:01:01.123Z,4.40
2018-07-16T07:03:31.914Z,3.57
2018-07-16T07:06:02.508Z,3.80
2018-07-16T07:08:33.360Z,3.40
2018-07-16T07:11:03.871Z,3.53
2018-07-16T07:13:34.350Z,2.50
2018-07-16T07:16:05.196Z,3.30
2018-07-16T07:18:35.853Z,2.70
2018-07-16T07:21:06.465Z,2.47
2018-07-16T07:23:36.931Z,3.70
2018-07-16T07:26:07.573Z,2.93
2018-07-16T07:28:38.089Z,2.80
2018-07-16T07:31:08.246Z,3.10
2018-07-16T07:33:38.840Z,2.53
2018-07-16T07:36:09.311Z,2.30
2018-07-16T07:38:39.798Z,2.40
2018-07-16T07:41:10.437Z,2.83
2018-07-16T07:43:41.167Z,2.30
2018-07-16T07:46:11.637Z,2.53
2018-07-16T07:48:42.429Z,2.30
2018-07-16T07:51:12.975Z,2.30
2018-07-16T07:53:43.498Z,2.57
2018-07-16T07:56:14.374Z,2.37
2018-07-16T07:58:44.849Z,1.80
2018-07-16T08:01:15.434Z,1.93
2018-07-16T08:03:45.901Z,2.27
2018-07-16T08:06:16.366Z,2.27
2018-07-16T08:08:47.802Z,2.10
2018-07-16T08:11:18.343Z,1.83
2018-07-16T08:13:48.919Z,1.53
2018-07-16T08:16:19.549Z,1.80
2018-07-16T08:18:50.210Z,1.40
2018-07-16T08:21:21.366Z,1.90
2018-07-16T08:23:51.592Z,2.07
2018-07-16T08:26:22.159Z,1.90
2018-07-16T08:28:52.684Z,2.00
2018-07-16T08:31:23.633Z,1.93
2018-07-16T08:33:54.849Z,1.90
2018-07-16T08:36:25.687Z,2.50
2018-07-16T08:38:56.363Z,2.23
2018-07-16T08:41:27.270Z,1.70
2018-07-16T08:43:57.858Z,1.97
2018-07-16T08:46:28.545Z,2.00
2018-07-16T08:48:59.784Z,1.80
2018-07-16T08:51:30.829Z,1.63
2018-07-16T08:54:01.449Z,1.40
2018-07-16T08:56:32.244Z,1.60
2018-07-16T08:59:03.315Z,1.90
2018-07-16T09:01:34.350Z,1.80
2018-07-16T09:04:05.089Z,2.50
2018-07-16T09:06:35.703Z,2.13
2018-07-16T09:09:07.029Z,2.37
2018-07-16T09:11:37.491Z,2.20
2018-07-16T09:14:08.401Z,2.03
2018-07-16T09:16:39.182Z,2.17
2018-07-16T09:19:10.780Z,1.80
2018-07-16T09:21:41.321Z,2.13
2018-07-16T09:24:11.884Z,2.17
2018-07-16T09:26:42.551Z,1.80
2018-07-16T09:29:13.108Z,1.60
2018-07-16T09:31:43.683Z,1.97
2018-07-16T09:34:14.706Z,1.70
2018-07-16T09:36:45.437Z,1.60
2018-07-16T09:39:16.567Z,1.90
2018-07-16T09:41:47.060Z,1.50
2018-07-16T09:44:17.767Z,1.23
2018-07-16T09:46:48.232Z,1.47
2018-07-16T09:49:18.881Z,1.40
2018-07-16T09:51:49.416Z,1.77
2018-07-16T09:54:20.052Z,1.63
2018-07-16T09:56:50.674Z,1.70
2018-07-16T09:59:21.322Z,1.83
2018-07-16T10:01:57.198Z,1.60
2018-07-16T10:04:28.185Z,1.90
2018-07-16T10:06:58.780Z,1.30
2018-07-16T10:09:29.317Z,1.90
2018-07-16T10:11:59.901Z,1.67
2018-07-16T10:14:30.160Z,1.47
2018-07-16T10:17:00.297Z,1.50
2018-07-16T10:19:30.773Z,2.37
2018-07-16T10:22:01.111Z,1.70
2018-07-16T10:24:32.220Z,1.97
2018-07-16T10:27:02.817Z,1.77
2018-07-16T10:29:33.719Z,1.63
2018-07-16T10:32:03.987Z,1.63
2018-07-16T10:34:34.437Z,1.87
2018-07-16T10:37:05.309Z,1.40
2018-07-16T10:39:35.855Z,1.47
2018-07-16T10:42:06.790Z,1.43
2018-07-16T10:44:37.461Z,1.50
2018-07-16T10:47:08.147Z,1.23
2018-07-16T10:49:38.853Z,1.53
2018-07-16T10:52:10.095Z,2.07
2018-07-16T10:54:41.468Z,2.00
2018-07-16T10:57:12.152Z,1.70
2018-07-16T10:59:43.188Z,1.50
2018-07-16T11:02:13.933Z,2.00
2018-07-16T11:04:45.207Z,1.53
2018-07-16T11:07:15.818Z,1.33
2018-07-16T11:09:46.368Z,1.50
2018-07-16T11:12:16.969Z,1.60
2018-07-16T11:14:47.447Z,1.50
2018-07-16T11:17:18.076Z,1.70
2018-07-16T11:19:48.707Z,1.43
2018-07-16T11:22:19.192Z,1.57
2018-07-16T11:24:50.495Z,1.93
2018-07-16T11:27:21.041Z,1.80
2018-07-16T11:29:51.684Z,1.63
2018-07-16T11:32:22.270Z,1.77
2018-07-16T11:34:53.872Z,1.70
2018-07-16T11:37:24.862Z,1.90
2018-07-16T11:39:55.507Z,1.93
2018-07-16T11:42:26.840Z,1.77
2018-07-16T11:44:57.601Z,1.67
2018-07-16T11:47:29.865Z,1.90
2018-07-16T11:50:00.440Z,1.90
2018-07-16T11:52:32.117Z,1.80
2018-07-16T11:55:02.797Z,2.20
2018-07-16T11:57:33.395Z,2.70
2018-07-16T12:00:05.590Z,2.20
2018-07-16T12:02:36.816Z,1.97
2018-07-16T12:05:07.537Z,2.40
2018-07-16T12:07:38.914Z,1.90
2018-07-16T12:10:09.740Z,1.80
2018-07-16T12:12:40.502Z,1.57
2018-07-16T12:15:11.307Z,2.10
2018-07-16T12:17:41.749Z,1.80
2018-07-16T12:20:12.445Z,2.00
2018-07-16T12:22:43.013Z,2.33
2018-07-16T12:25:13.573Z,2.40
2018-07-16T12:27:44.060Z,1.83
2018-07-16T12:30:15.009Z,2.17
2018-07-16T12:32:45.826Z,2.27
2018-07-16T12:35:16.363Z,2.03
2018-07-16T12:37:47.200Z,1.90
2018-07-16T12:40:17.442Z,2.30
2018-07-16T12:42:47.977Z,2.17
2018-07-16T12:45:18.582Z,2.70
2018-07-16T12:47:49.243Z,2.33
2018-07-16T12:50:20.310Z,2.80
2018-07-16T12:52:50.890Z,2.23
2018-07-16T12:55:21.520Z,2.90
2018-07-16T12:57:51.962Z,2.13
2018-07-16T13:00:22.672Z,2.13
2018-07-16T13:02:53.301Z,2.10
2018-07-16T13:05:23.897Z,2.53
2018-07-16T13:07:54.562Z,2.40
2018-07-16T13:10:25.911Z,2.40
2018-07-16T13:12:56.663Z,2.50
2018-07-16T13:15:26.993Z,2.37
2018-07-16T13:17:57.596Z,3.17
2018-07-16T13:20:27.881Z,2.30
2018-07-16T13:22:58.387Z,2.30
2018-07-16T13:25:29.097Z,2.80
2018-07-16T13:27:59.662Z,2.67
2018-07-16T13:30:30.229Z,2.30
2018-07-16T13:33:00.988Z,2.43
2018-07-16T13:35:31.740Z,2.80
2018-07-16T13:38:02.523Z,2.50
2018-07-16T13:40:33.101Z,2.47
2018-07-16T13:43:03.363Z,3.10
2018-07-16T13:45:34.057Z,2.30
2018-07-16T13:48:04.620Z,2.33
2018-07-16T13:50:35.064Z,3.53
2018-07-16T13:53:06.040Z,2.40
2018-07-16T13:55:36.717Z,4.07
2018-07-16T13:58:07.354Z,2.40
2018-07-16T14:00:38.038Z,2.30
2018-07-16T14:03:08.826Z,2.80
2018-07-16T14:05:39.417Z,2.60
2018-07-16T14:08:10.113Z,2.30
2018-07-16T14:10:40.752Z,2.23
2018-07-16T14:13:11.288Z,2.80
2018-07-16T14:15:42.048Z,2.40
2018-07-16T14:18:12.799Z,1.87
2018-07-16T14:20:43.519Z,1.97
2018-07-16T14:23:14.332Z,2.60
2018-07-16T14:25:44.954Z,2.50
2018-07-16T14:28:15.484Z,2.23
2018-07-16T14:30:46.155Z,2.20
2018-07-16T14:33:16.696Z,2.10
2018-07-16T14:35:47.283Z,2.00
2018-07-16T14:38:17.855Z,2.73
2018-07-16T14:40:48.497Z,2.37
2018-07-16T14:43:19.919Z,2.27
2018-07-16T14:45:50.436Z,1.90
2018-07-16T14:48:21.177Z,2.30
2018-07-16T14:50:51.987Z,1.80
2018-07-16T14:53:22.611Z,1.90
2018-07-16T14:55:53.293Z,1.90
2018-07-16T14:58:23.814Z,1.80
2018-07-16T15:00:54.592Z,1.90
2018-07-16T15:03:25.553Z,2.13
2018-07-16T15:05:56.372Z,2.20
2018-07-16T15:08:26.936Z,2.80
2018-07-16T15:10:57.658Z,1.80
2018-07-16T15:13:28.085Z,2.50
2018-07-16T15:15:58.299Z,2.33
2018-07-16T15:18:29.506Z,2.73
2018-07-16T15:21:00.477Z,3.10
2018-07-16T15:23:30.685Z,2.50
2018-07-16T15:26:01.403Z,2.33
2018-07-16T15:28:32.279Z,2.27
2018-07-16T15:31:02.911Z,2.93
2018-07-16T15:33:33.461Z,3.40
2018-07-16T15:36:03.935Z,3.10
2018-07-16T15:38:34.940Z,2.60
2018-07-16T15:41:05.765Z,2.73
2018-07-16T15:43:36.161Z,2.40
2018-07-16T15:46:06.871Z,2.17
2018-07-16T15:48:37.800Z,2.50
2018-07-16T15:51:08.450Z,2.73
2018-07-16T15:53:39.685Z,2.40
2018-07-16T15:56:10.371Z,3.20
2018-07-16T15:58:41.001Z,2.60
2018-07-16T16:01:11.731Z,2.20
2018-07-16T16:03:42.380Z,2.03
2018-07-16T16:06:13.031Z,2.20
2018-07-16T16:08:43.641Z,2.43
2018-07-16T16:11:17.082Z,2.40
2018-07-16T16:13:47.513Z,3.10
2018-07-16T16:16:18.368Z,2.03
2018-07-16T16:18:48.963Z,2.10
2018-07-16T16:21:19.520Z,1.63
2018-07-16T16:23:50.134Z,2.00
2018-07-16T16:26:20.710Z,2.23
2018-07-16T16:28:51.314Z,1.80
2018-07-16T16:31:22.039Z,2.33
2018-07-16T16:33:52.755Z,2.23
2018-07-16T16:36:23.437Z,2.47
2018-07-16T16:38:54.038Z,2.40
2018-07-16T16:41:24.612Z,2.50
2018-07-16T16:43:55.373Z,2.00
2018-07-16T16:46:25.976Z,2.10
2018-07-16T16:48:56.567Z,1.93
2018-07-16T16:51:27.422Z,2.13
2018-07-16T16:53:57.997Z,2.93
2018-07-16T16:56:28.723Z,1.80
2018-07-16T16:58:59.658Z,2.40
2018-07-16T17:01:30.004Z,2.33
2018-07-16T17:04:00.540Z,2.03
2018-07-16T17:06:31.090Z,2.13
2018-07-16T17:09:01.778Z,2.10
2018-07-16T17:11:32.414Z,2.30
2018-07-16T17:14:03.000Z,2.30
2018-07-16T17:16:33.721Z,1.93
2018-07-16T17:19:04.281Z,2.80
2018-07-16T17:21:34.952Z,4.13
2018-07-16T17:24:05.824Z,2.63
2018-07-16T17:26:36.519Z,2.63
2018-07-16T17:29:07.243Z,2.20
2018-07-16T17:31:37.850Z,2.30
2018-07-16T17:34:08.500Z,2.77
2018-07-16T17:36:39.134Z,2.63
2018-07-16T17:39:10.601Z,2.73
2018-07-16T17:41:41.202Z,4.70
2018-07-16T17:44:11.689Z,3.57
2018-07-16T17:46:42.277Z,7.20
2018-07-16T17:49:12.806Z,6.57
2018-07-16T17:51:43.395Z,2.97
2018-07-16T17:54:14.499Z,2.87
2018-07-16T17:56:45.334Z,2.60
2018-07-16T17:59:15.916Z,2.43
2018-07-16T18:01:46.608Z,3.30
2018-07-16T18:04:17.107Z,2.53
2018-07-16T18:06:47.389Z,6.30
2018-07-16T18:09:18.044Z,9.93
2018-07-16T18:11:48.689Z,6.50
2018-07-16T18:14:19.446Z,3.10
2018-07-16T18:16:50.541Z,2.80
2018-07-16T18:19:21.316Z,3.07
2018-07-16T18:21:51.921Z,3.40
2018-07-16T18:24:22.452Z,3.10
2018-07-16T18:26:53.192Z,2.97
2018-07-16T18:29:24.097Z,2.83
2018-07-16T18:31:54.892Z,3.07
2018-07-16T18:34:25.621Z,2.70
2018-07-16T18:36:56.351Z,2.60
2018-07-16T18:39:27.177Z,2.50
2018-07-16T18:41:57.823Z,2.77
2018-07-16T18:44:28.604Z,2.67
2018-07-16T18:46:59.430Z,4.40
2018-07-16T18:49:30.179Z,3.97
2018-07-16T18:52:00.725Z,2.60
2018-07-16T18:54:31.245Z,2.60
2018-07-16T18:57:01.785Z,2.20
2018-07-16T18:59:32.504Z,2.20
2018-07-16T19:02:03.177Z,2.63
2018-07-16T19:04:33.577Z,2.43
2018-07-16T19:07:05.309Z,3.40
2018-07-16T19:09:36.081Z,3.20
2018-07-16T19:12:06.802Z,3.43
2018-07-16T19:14:37.808Z,2.93
2018-07-16T19:17:08.559Z,2.67
2018-07-16T19:19:39.756Z,3.90
2018-07-16T19:22:10.962Z,3.03
2018-07-16T19:24:41.630Z,2.90
2018-07-16T19:27:12.130Z,2.80
2018-07-16T19:29:42.945Z,2.40
2018-07-16T19:32:13.638Z,2.60
2018-07-16T19:34:44.350Z,3.00
2018-07-16T19:37:14.557Z,2.67
2018-07-16T19:39:45.468Z,3.03
2018-07-16T19:42:16.000Z,3.40
2018-07-16T19:44:46.593Z,3.30
2018-07-16T19:47:17.267Z,3.80
2018-07-16T19:49:48.006Z,3.07
2018-07-16T19:52:18.605Z,2.87
2018-07-16T19:54:49.329Z,3.23
2018-07-16T19:57:20.566Z,3.07
2018-07-16T19:59:51.282Z,3.00
2018-07-16T20:02:22.438Z,3.23
2018-07-16T20:04:53.124Z,3.17
2018-07-16T20:07:23.872Z,4.40
2018-07-16T20:09:54.565Z,3.10
2018-07-16T20:12:34.331Z,3.00
2018-07-16T20:15:06.117Z,4.40
2018-07-16T20:17:36.799Z,3.20
2018-07-16T20:20:09.714Z,3.37
2018-07-16T20:22:40.421Z,3.00
2018-07-16T20:25:11.144Z,3.53
2018-07-16T20:27:41.941Z,4.17
2018-07-16T20:30:12.612Z,3.07
2018-07-16T20:32:43.293Z,3.97
2018-07-16T20:35:14.058Z,3.13
2018-07-16T20:37:44.900Z,2.93
2018-07-16T20:40:15.357Z,3.27
2018-07-16T20:42:45.937Z,3.80
2018-07-16T20:45:16.484Z,3.40
2018-07-16T20:47:47.160Z,3.50
2018-07-16T20:50:18.649Z,3.77
2018-07-16T20:52:49.218Z,3.70
2018-07-16T20:55:19.848Z,3.70
2018-07-16T20:57:50.758Z,3.10
2018-07-16T21:00:21.774Z,3.37
2018-07-16T21:02:52.456Z,3.20
2018-07-16T21:05:23.175Z,3.10
2018-07-16T21:07:53.945Z,3.87
2018-07-16T21:10:24.549Z,2.83
2018-07-16T21:12:55.489Z,3.20
2018-07-16T21:15:26.016Z,3.20
2018-07-16T21:18:20.393Z,2.70
2018-07-16T21:20:51.021Z,3.60
2018-07-16T21:23:21.646Z,3.20
2018-07-16T21:25:52.320Z,3.13
2018-07-16T21:28:23.131Z,2.93
2018-07-16T21:30:53.630Z,3.10
2018-07-16T21:33:24.318Z,3.10
2018-07-16T21:39:32.635Z,3.07
2018-07-16T21:42:03.273Z,3.10
2018-07-16T21:44:34.223Z,2.90
2018-07-16T21:47:05.050Z,3.50
2018-07-16T21:49:36.968Z,3.20
2018-07-16T21:52:07.879Z,2.37
2018-07-16T21:54:38.585Z,2.53
2018-07-16T21:57:12.221Z,3.07
2018-07-16T21:59:42.953Z,2.90
2018-07-16T22:02:13.669Z,2.60
2018-07-16T22:04:44.295Z,3.17
2018-07-16T22:07:14.901Z,3.07
2018-07-16T22:09:45.418Z,3.20
2018-07-16T22:12:16.115Z,3.30
2018-07-16T22:14:46.699Z,3.10
2018-07-16T22:17:18.055Z,2.87
2018-07-16T22:19:48.693Z,2.97
2018-07-16T22:22:20.346Z,2.97
2018-07-16T22:24:51.055Z,2.70
2018-07-16T22:27:21.717Z,3.03
2018-07-16T22:29:52.320Z,3.30
2018-07-16T22:32:22.915Z,3.50
2018-07-16T22:34:53.648Z,2.83
2018-07-16T22:37:24.468Z,3.23
2018-07-16T22:39:55.066Z,2.60
2018-07-16T22:42:25.876Z,2.80
2018-07-16T22:44:57.393Z,2.90
2018-07-16T22:47:28.064Z,2.70
2018-07-16T22:49:58.708Z,2.77
2018-07-16T22:52:29.236Z,2.80
2018-07-16T22:55:00.425Z,3.07
2018-07-16T22:57:31.056Z,3.37
2018-07-16T23:00:01.635Z,3.37
2018-07-16T23:02:31.904Z,2.90
2018-07-16T23:05:02.379Z,3.60
2018-07-16T23:07:32.931Z,3.30
2018-07-16T23:10:03.565Z,3.57
2018-07-16T23:12:34.156Z,3.37
2018-07-16T23:15:05.169Z,3.33
2018-07-16T23:17:35.807Z,3.33
2018-07-16T23:20:06.474Z,3.10
2018-07-16T23:22:56.876Z,3.43
2018-07-16T23:25:27.466Z,2.93
2018-07-16T23:27:58.153Z,3.20
2018-07-16T23:30:28.725Z,3.03
2018-07-16T23:33:00.049Z,2.97
2018-07-16T23:35:30.765Z,3.30
2018-07-16T23:38:01.342Z,3.10
2018-07-16T23:40:31.799Z,3.87
2018-07-16T23:43:03.385Z,3.37
2018-07-16T23:45:34.068Z,3.00
2018-07-16T23:48:05.019Z,3.57
2018-07-16T23:50:35.759Z,3.40
2018-07-16T23:53:06.018Z,3.23
2018-07-16T23:55:36.611Z,3.50
2018-07-16T23:58:07.380Z,3.30
